createdAt,value
2023-03-12T00:02:40.742Z,-1.47
2023-03-12T00:07:43.568Z,-1.40
2023-03-12T00:12:46.956Z,-1.35
2023-03-12T00:17:52.655Z,-1.31
2023-03-12T00:22:55.444Z,-1.27
2023-03-12T00:27:58.417Z,-1.19
2023-03-12T00:33:02.993Z,-1.22
2023-03-12T00:38:06.301Z,-1.16
2023-03-12T00:43:09.101Z,-1.10
2023-03-12T00:48:13.330Z,-1.11
2023-03-12T00:53:16.266Z,-1.06
2023-03-12T00:58:19.050Z,-1.03
2023-03-12T01:03:23.312Z,-0.99
2023-03-12T01:08:26.260Z,-0.98
2023-03-12T01:13:29.223Z,-0.98
2023-03-12T01:18:33.804Z,-0.92
2023-03-12T01:23:36.630Z,-0.93
2023-03-12T01:28:39.674Z,-0.93
2023-03-12T01:33:44.033Z,-0.88
2023-03-12T01:38:47.189Z,-0.93
2023-03-12T01:43:50.902Z,-0.93
2023-03-12T01:49:00.463Z,-0.96
2023-03-12T01:54:08.685Z,-0.91
2023-03-12T01:59:16.588Z,-0.90
2023-03-12T02:04:24.004Z,-0.91
2023-03-12T02:09:27.143Z,-0.90
2023-03-12T02:14:30.260Z,-0.87
2023-03-12T02:19:44.924Z,-0.85
2023-03-12T02:24:52.141Z,-0.81
2023-03-12T02:29:56.356Z,-0.84
2023-03-12T02:35:01.378Z,-0.81
2023-03-12T02:40:09.727Z,-0.83
2023-03-12T02:45:14.018Z,-0.83
2023-03-12T02:50:17.163Z,-0.84
2023-03-12T02:55:20.161Z,-0.83
2023-03-12T03:00:25.267Z,-0.84
2023-03-12T03:05:30.000Z,-0.85
2023-03-12T03:10:32.894Z,-0.80
2023-03-12T03:15:38.898Z,-0.77
2023-03-12T03:20:43.552Z,-0.84
2023-03-12T03:25:47.610Z,-0.84
2023-03-12T03:30:53.928Z,-0.76
2023-03-12T03:35:59.453Z,-0.77
2023-03-12T03:41:04.115Z,-0.76
2023-03-12T03:46:13.610Z,-0.73
2023-03-12T03:51:20.018Z,-0.71
2023-03-12T03:56:27.629Z,-0.70
2023-03-12T04:01:32.332Z,-0.70
2023-03-12T04:06:37.514Z,-0.63
2023-03-12T04:25:07.293Z,-0.53
2023-03-12T04:30:11.753Z,-0.53
2023-03-12T04:35:15.060Z,-0.51
2023-03-12T04:40:19.970Z,-0.46
2023-03-12T04:45:23.064Z,-0.44
2023-03-12T04:50:26.143Z,-0.45
2023-03-12T04:55:30.485Z,-0.41
2023-03-12T05:00:33.546Z,-0.36
2023-03-12T05:05:36.808Z,-0.39
2023-03-12T05:10:41.452Z,-0.39
2023-03-12T05:15:50.565Z,-0.41
2023-03-12T05:21:00.381Z,-0.34
2023-03-12T05:26:04.955Z,-0.29
2023-03-12T05:31:10.858Z,-0.26
2023-03-12T05:36:15.473Z,-0.23
2023-03-12T05:41:24.434Z,-0.27
2023-03-12T05:46:29.463Z,-0.22
2023-03-12T05:51:33.694Z,-0.18
2023-03-12T05:56:38.901Z,-0.19
2023-03-12T06:01:42.989Z,-0.19
2023-03-12T06:06:46.236Z,-0.21
2023-03-12T06:11:51.028Z,-0.29
2023-03-12T06:16:54.124Z,-0.24
2023-03-12T06:21:57.053Z,-0.22
2023-03-12T06:27:01.693Z,-0.24
2023-03-12T06:32:04.757Z,-0.25
2023-03-12T06:37:07.648Z,-0.19
2023-03-12T06:42:13.004Z,-0.16
2023-03-12T06:47:17.595Z,-0.10
2023-03-12T06:52:20.686Z,-0.02
2023-03-12T06:57:24.884Z,0.00
2023-03-12T07:02:28.055Z,-0.01
2023-03-12T07:07:31.123Z,0.13
2023-03-12T07:12:35.239Z,0.23
2023-03-12T07:17:38.194Z,0.14
2023-03-12T07:22:41.024Z,0.18
2023-03-12T07:27:46.905Z,0.26
2023-03-12T07:32:50.077Z,0.25
2023-03-12T07:37:52.957Z,0.37
2023-03-12T07:42:57.733Z,0.38
2023-03-12T07:48:00.784Z,0.21
2023-03-12T07:53:04.721Z,0.28
2023-03-12T07:58:09.061Z,0.43
2023-03-12T08:03:12.291Z,0.36
2023-03-12T08:08:15.826Z,0.41
2023-03-12T08:13:20.267Z,0.54
2023-03-12T08:18:26.900Z,0.68
2023-03-12T08:23:29.936Z,0.56
2023-03-12T08:28:34.261Z,0.72
2023-03-12T08:33:41.081Z,0.78
2023-03-12T08:38:43.872Z,0.78
2023-03-12T08:43:48.106Z,0.75
2023-03-12T08:48:51.110Z,0.85
2023-03-12T08:53:54.128Z,0.96
2023-03-12T08:58:59.293Z,1.11
2023-03-12T09:04:04.538Z,1.05
2023-03-12T09:09:09.032Z,1.13
2023-03-12T09:15:01.578Z,1.20
2023-03-12T09:19:36.571Z,1.30
2023-03-12T09:24:39.381Z,1.36
2023-03-12T09:29:58.800Z,1.48
2023-03-12T09:35:02.387Z,1.58
2023-03-12T09:40:08.100Z,1.81
2023-03-12T09:45:18.191Z,1.78
2023-03-12T09:50:27.870Z,1.83
2023-03-12T09:55:36.821Z,2.14
2023-03-12T10:00:41.385Z,2.16
2023-03-12T10:05:48.409Z,2.24
2023-03-12T10:10:55.970Z,2.27
2023-03-12T10:16:12.988Z,2.59
2023-03-12T10:21:23.152Z,2.56
2023-03-12T10:26:32.448Z,2.73
2023-03-12T10:31:43.016Z,2.99
2023-03-12T10:36:47.560Z,3.02
2023-03-12T10:41:53.000Z,3.41
2023-03-12T10:47:09.293Z,3.52
2023-03-12T10:52:18.650Z,3.85
2023-03-12T10:57:22.745Z,4.04
2023-03-12T11:02:32.494Z,4.33
2023-03-12T11:07:36.271Z,4.42
2023-03-12T11:12:40.781Z,4.65
2023-03-12T11:17:45.038Z,4.81
2023-03-12T11:22:49.995Z,5.52
2023-03-12T11:27:56.414Z,5.83
2023-03-12T11:33:02.107Z,6.49
2023-03-12T11:38:11.325Z,6.71
2023-03-12T11:43:42.758Z,6.76
2023-03-12T11:48:58.631Z,7.82
2023-03-12T11:54:17.722Z,9.01
2023-03-12T11:59:36.112Z,8.87
2023-03-12T12:05:07.029Z,10.03
2023-03-12T12:10:18.178Z,10.78
2023-03-12T12:15:32.249Z,11.72
2023-03-12T12:20:46.476Z,10.46
2023-03-12T12:26:06.597Z,10.03
2023-03-12T12:31:23.631Z,9.69
2023-03-12T12:36:31.848Z,9.82
2023-03-12T12:41:39.725Z,9.50
2023-03-12T12:46:46.360Z,9.41
2023-03-12T12:51:57.149Z,9.46
2023-03-12T12:57:07.095Z,9.63
2023-03-12T13:02:18.489Z,9.51
2023-03-12T13:07:34.939Z,9.63
2023-03-12T13:12:48.577Z,9.59
2023-03-12T13:18:06.322Z,9.58
2023-03-12T13:23:31.772Z,9.53
2023-03-12T13:28:42.024Z,9.68
2023-03-12T13:33:49.308Z,9.56
2023-03-12T13:38:59.906Z,9.78
2023-03-12T13:44:38.702Z,9.65
2023-03-12T13:49:45.314Z,9.57
2023-03-12T13:54:51.770Z,9.52
2023-03-12T13:59:57.945Z,9.40
2023-03-12T14:05:07.124Z,9.57
2023-03-12T14:10:23.908Z,9.69
2023-03-12T14:15:37.450Z,9.67
2023-03-12T14:20:43.025Z,9.95
2023-03-12T14:25:49.326Z,10.15
2023-03-12T14:31:00.642Z,10.37
2023-03-12T14:36:09.661Z,10.44
2023-03-12T14:41:16.756Z,10.49
2023-03-12T14:46:23.340Z,10.58
2023-03-12T14:51:28.030Z,10.53
2023-03-12T14:56:34.787Z,10.44
2023-03-12T15:01:40.624Z,10.40
2023-03-12T15:06:47.405Z,10.30
2023-03-12T15:11:55.666Z,10.27
2023-03-12T15:17:00.772Z,10.27
2023-03-12T15:22:04.942Z,10.17
2023-03-12T15:27:32.985Z,10.17
2023-03-12T15:32:37.168Z,10.34
2023-03-12T15:37:41.797Z,10.19
2023-03-12T15:42:47.310Z,10.15
2023-03-12T15:47:54.356Z,10.10
2023-03-12T15:53:00.608Z,10.04
2023-03-12T15:58:04.336Z,10.03
2023-03-12T16:03:17.486Z,9.98
2023-03-12T16:08:28.145Z,9.97
2023-03-12T16:13:33.489Z,9.92
2023-03-12T16:18:39.405Z,9.85
2023-03-12T16:23:42.241Z,9.82
2023-03-12T16:28:45.626Z,9.87
2023-03-12T16:33:49.917Z,9.84
2023-03-12T16:38:52.719Z,9.81
2023-03-12T16:43:56.864Z,9.81
2023-03-12T16:49:02.010Z,9.74
2023-03-12T16:54:11.281Z,9.75
2023-03-12T16:59:23.184Z,9.67
2023-03-12T17:04:27.467Z,9.70
2023-03-12T17:09:30.330Z,9.61
2023-03-12T17:14:33.180Z,9.62
2023-03-12T17:19:38.026Z,9.62
2023-03-12T17:24:41.225Z,9.58
2023-03-12T17:29:44.022Z,9.58
2023-03-12T17:34:48.938Z,9.56
2023-03-12T17:39:51.767Z,9.60
2023-03-12T17:44:54.725Z,9.58
2023-03-12T17:49:59.184Z,9.58
2023-03-12T17:55:03.626Z,9.53
2023-03-12T18:00:13.017Z,9.56
2023-03-12T18:05:18.548Z,9.46
2023-03-12T18:10:21.632Z,9.46
2023-03-12T18:15:24.575Z,9.41
2023-03-12T18:20:38.122Z,9.43
2023-03-12T18:25:42.093Z,9.40
2023-03-12T18:30:46.447Z,9.39
2023-03-12T18:35:53.964Z,9.42
2023-03-12T18:41:03.503Z,9.47
2023-03-12T18:46:08.320Z,9.42
2023-03-12T18:51:12.600Z,9.34
2023-03-12T18:56:15.478Z,9.29
2023-03-12T19:01:18.466Z,9.29
2023-03-12T19:06:22.668Z,9.24
2023-03-12T19:11:26.395Z,9.35
2023-03-12T19:16:29.293Z,9.27
2023-03-12T19:21:33.607Z,9.17
2023-03-12T19:26:36.463Z,9.16
2023-03-12T19:31:39.484Z,9.13
2023-03-12T19:36:43.884Z,9.13
2023-03-12T19:41:47.164Z,9.09
2023-03-12T19:46:49.885Z,9.05
2023-03-12T19:51:54.823Z,9.01
2023-03-12T19:56:57.676Z,9.03
2023-03-12T20:02:01.745Z,8.99
2023-03-12T20:07:06.012Z,8.92
2023-03-12T20:12:08.923Z,8.87
2023-03-12T20:17:12.259Z,8.88
2023-03-12T20:22:17.247Z,8.88
2023-03-12T20:27:20.404Z,8.87
2023-03-12T20:32:23.377Z,8.86
2023-03-12T20:37:27.674Z,8.89
2023-03-12T20:42:31.334Z,8.90
2023-03-12T20:47:34.631Z,8.87
2023-03-12T20:52:39.490Z,8.80
2023-03-12T20:57:42.348Z,8.80
2023-03-12T21:02:45.700Z,8.69
2023-03-12T21:07:50.386Z,8.63
2023-03-12T21:12:53.292Z,8.55
2023-03-12T21:17:56.207Z,8.48
2023-03-12T21:23:01.679Z,8.48
2023-03-12T21:28:05.450Z,8.44
2023-03-12T21:33:08.350Z,8.42
2023-03-12T21:38:12.657Z,8.47
2023-03-12T21:43:15.548Z,8.50
2023-03-12T21:48:18.723Z,8.43
2023-03-12T21:53:24.159Z,8.42
2023-03-12T21:58:27.781Z,8.37
2023-03-12T22:03:30.565Z,8.37
2023-03-12T22:08:35.660Z,8.39
2023-03-12T22:13:38.885Z,8.38
2023-03-12T22:18:43.585Z,8.36
2023-03-12T22:23:50.894Z,8.41
2023-03-12T22:28:56.907Z,8.46
2023-03-12T22:34:00.748Z,8.44
2023-03-12T22:39:05.927Z,8.37
2023-03-12T22:44:09.260Z,8.41
2023-03-12T22:49:12.216Z,8.42
2023-03-12T22:54:17.896Z,8.35
2023-03-12T22:59:20.690Z,8.35
2023-03-12T23:04:23.536Z,8.29
2023-03-12T23:09:27.742Z,8.41
2023-03-12T23:14:30.721Z,8.48
2023-03-12T23:19:34.320Z,8.45
2023-03-12T23:24:40.018Z,8.37
2023-03-12T23:29:43.281Z,8.39
2023-03-12T23:34:46.145Z,8.32
2023-03-12T23:39:54.913Z,8.48
2023-03-12T23:44:58.039Z,8.56
2023-03-12T23:50:00.872Z,8.52
2023-03-12T23:55:05.585Z,8.47
